Belorechensk, Russia
Current Conditions -  °F | °C
As of 4:30 AM on Friday 28 Nov 2014 (Local Time) from URKK Reporting Station
Broken Clouds Broken Clouds  
Wind Chill: 32°   Ceiling: 10000
Heat Index: 32°   Visibility: 5mi
Dew Point: 32°   Wind: 2mph
Humidity: 100%   Direction: 310°NW
Pressure: 30.27"   Gusts: NA
Location:  44.77°N, 39.87°E
Report Text: URKK 280130Z 31001MPS 8000 SCT037 BKN100 00/M00 Q1025 NOSIG RMKQFE765 SC060
Loading
Personal Weather Stations






























Interactive Weather Map New forecast layout! Learn more

10-Day Weather Forecast

Advertisements
Track Severe Weather on mobile